Terminal Aerodrome Forecast
Issued by NWS St Louis, MO

Home | Current Version | Previous Version | Text Only | Print | Product List | Glossary On
Versions: 1 2 3 4 5 6 7 8 9 10 11 12 13 14 15 16 17 18 19 20 21 22 23 24 25 26 27 28
000
FTUS43 KLSX 041132
TAFSTL
TAF
KSTL 041132Z 0412/0518 VRB03KT 4SM BR SKC
      TEMPO 0412/0413 2SM BR
     FM041400 06004KT P6SM FEW025
     FM042100 10006KT P6SM FEW035
     FM050200 13006KT 6SM HZ SCT250
     FM051300 17006KT P6SM SCT250=

USA.gov is the U.S. government's official web portal to all federal, state and local government web resources and services.